North Tomah, WI

12:14 AM CST on February 25, 2017 (GMT -0600)
MTMAW3 | | Change Station
Active Advisory: Winter Weather Advisory Active Notice: Public Information Statement

Elev 987 ft 44.02 °N, 90.50 °W | Updated 23 minutes ago

Light Snow
Light Snow
18.0 °F
Feels Like 8 °F
N
8.0
Wind Variable Wind from SSE
Gusts 20.0 mph

Today
High -- | Low -- °F
--% Chance of Precip.
Yesterday
High -- | Low -- °F
Precip. -- in
Pressure 29.75 in
Visibility 5.0 miles
Clouds Clear
Windchill 8 °F
Dew Point 16.0 °F
Humidity 90%
Rainfall in
Snow Depth Not available.
6:45 AM 5:45 PM
Waning Crescent, 2% visible
METAR KCMY 250555Z AUTO 33010G15KT 5SM -SN CLR M07/M09 A2975 RMK AO2 T10751095 11036 21075 400121075
Pressure 29.75 in
Visibility 5.0 miles
Clouds Clear
Windchill 8 °F
Dew Point 16.0 °F
Humidity 90%
Rainfall in
Snow Depth Not available.
6:45 AM 5:45 PM
Waning Crescent, 2% visible
METAR KCMY 250555Z AUTO 33010G15KT 5SM -SN CLR M07/M09 A2975 RMK AO2 T10751095 11036 21075 400121075

Get Your Daily Forecast Email!

Thanks for signing up!

Be on the lookout for a verification email in your inbox.

You'll start receiving the daily forecast at 8 AM.

×

10-Day Weather Forecast

Almanac

Astronomy

Feb. 25, 2017 Rise Set
Actual Time
Civil Twilight
Nautical Twilight
Astronomical Twilight
Moon
Length of Visible Light
Length of Day
Tomorrow will be .
, % of the Moon is Illuminated

Today's Extremes

State Highs State Lows

Community

WunderPhotos

Upload Photos

1,962,540 photos uploaded!

WunderBlog® & News

Nearby

Air Quality

  Air Quality AQ Index Pollutant
Not available.

Snow Depth

Station Depth Elevation

Earthquake Activity

City Distance Mag. Time & Date
Minimum magnitude displayed is 2.5.

Coastal Water Temperatures

Place Temperature

Stations

Nearby Weather Stations

Station Location Temp. Windchill Dew Point Humidity Wind Precip. Elev Updated Type
                   

Watches & Warnings

Winter Weather Advisory
Issued: 11:30 PM CST Feb. 24, 2017 – National Weather Service

... Winter Weather Advisory remains in effect until 6 am CST
Saturday...

* periods of light snow will continue overnight, tapering off
from west to east through the night.

* Additional snow accumulation of around an inch is expected for
portions of southwest and central Wisconsin.

* Some minor blowing and drifting of snow is possible,
especially across open areas and along ridge tops.

* Snow and slick covered roads will continue, making travel
hazardous at times.

Precautionary/preparedness actions...

A Winter Weather Advisory means that periods of snow, sleet, or
freezing rain will cause travel difficulties. Be prepared for
slippery roads and limited visibilities, and use caution while
driving. The latest Road conditions for the state you are calling
from can be obtained by calling 5 1 1.



Rogers